Time,TemperatureF,DewpointF,PressureIn,WindDirection,WindDirectionDegrees,WindSpeedMPH,WindSpeedGustMPH,Humidity,HourlyPrecipIn,Conditions,Clouds,dailyrainin,SoftwareType,DateUTC
2013-07-22 00:02:00,70.0,67.3,29.99,SSE,168,0.0,0.0,91,0.00,,,0.00,meteohub,2013-07-22 04:02:00,
2013-07-22 00:07:00,70.0,67.3,29.99,SSE,168,0.0,0.0,91,0.00,,,0.00,meteohub,2013-07-22 04:07:00,
2013-07-22 00:12:00,70.0,67.3,29.99,SSE,168,0.0,0.0,91,0.00,,,0.00,meteohub,2013-07-22 04:12:00,
2013-07-22 00:17:00,69.8,67.1,29.99,SSE,168,0.0,0.0,91,0.00,,,0.00,meteohub,2013-07-22 04:17:00,
2013-07-22 00:22:00,69.8,67.1,29.99,SSE,168,0.0,0.0,91,0.00,,,0.00,meteohub,2013-07-22 04:22:00,
2013-07-22 00:27:00,69.6,67.3,29.99,SSE,168,0.0,0.0,92,0.00,,,0.00,meteohub,2013-07-22 04:27:00,
2013-07-22 00:32:00,69.4,67.1,29.99,WNW,302,0.0,0.0,92,0.00,,,0.00,meteohub,2013-07-22 04:32:00,
2013-07-22 00:37:00,69.6,67.3,29.99,South,190,0.0,0.0,92,0.00,,,0.00,meteohub,2013-07-22 04:37:00,
2013-07-22 00:42:00,69.6,67.3,30.01,South,190,0.0,0.0,92,0.00,,,0.00,meteohub,2013-07-22 04:42:00,
2013-07-22 00:47:00,69.6,67.5,30.01,South,190,0.0,0.0,93,0.00,,,0.00,meteohub,2013-07-22 04:47:00,
2013-07-22 00:52:00,69.4,67.3,30.01,South,190,0.0,0.0,93,0.00,,,0.00,meteohub,2013-07-22 04:52:00,
2013-07-22 01:02:00,69.4,67.3,29.99,SE,145,0.0,0.0,93,0.00,,,0.00,meteohub,2013-07-22 05:02:00,
2013-07-22 01:07:00,69.4,67.3,29.99,SE,145,0.0,0.0,93,0.00,,,0.00,meteohub,2013-07-22 05:07:00,
2013-07-22 01:12:00,69.3,67.1,29.99,SE,145,0.0,0.0,93,0.00,,,0.00,meteohub,2013-07-22 05:12:00,
2013-07-22 01:22:00,69.4,67.6,29.99,SE,145,0.0,0.0,94,0.00,,,0.00,meteohub,2013-07-22 05:22:00,
2013-07-22 01:27:00,69.4,67.6,30.01,SE,145,0.0,0.0,94,0.00,,,0.00,meteohub,2013-07-22 05:27:00,
2013-07-22 01:32:00,69.3,67.5,30.01,South,190,0.0,0.0,94,0.00,,,0.00,meteohub,2013-07-22 05:32:00,
2013-07-22 01:37:00,69.3,67.8,30.01,SSE,168,0.0,0.0,95,0.00,,,0.00,meteohub,2013-07-22 05:37:00,
2013-07-22 01:42:00,69.4,68.0,29.99,SE,145,0.0,0.0,95,0.00,,,0.00,meteohub,2013-07-22 05:42:00,
2013-07-22 01:47:00,69.4,68.0,29.99,SE,145,0.0,0.0,95,0.00,,,0.00,meteohub,2013-07-22 05:47:00,
2013-07-22 01:52:00,69.4,68.0,29.99,SE,145,0.0,0.0,95,0.04,,,0.04,meteohub,2013-07-22 05:52:00,
2013-07-22 01:57:00,69.3,67.8,29.99,SE,145,0.0,0.0,95,0.04,,,0.04,meteohub,2013-07-22 05:57:00,
2013-07-22 02:02:00,69.3,67.8,29.99,SE,145,0.0,0.0,95,0.04,,,0.04,meteohub,2013-07-22 06:02:00,
2013-07-22 02:07:00,69.3,67.8,29.99,SE,145,0.0,0.0,95,0.04,,,0.04,meteohub,2013-07-22 06:07:00,
2013-07-22 02:12:00,69.3,67.8,29.96,WNW,302,0.0,0.0,95,0.04,,,0.04,meteohub,2013-07-22 06:12:00,
2013-07-22 02:17:00,69.1,67.8,29.96,West,280,0.0,0.0,96,0.04,,,0.04,meteohub,2013-07-22 06:17:00,
2013-07-22 02:22:00,69.3,68.0,29.96,SE,145,0.0,0.0,96,0.04,,,0.04,meteohub,2013-07-22 06:22:00,
2013-07-22 02:27:00,69.3,68.0,29.96,SE,145,0.0,0.0,96,0.04,,,0.04,meteohub,2013-07-22 06:27:00,
2013-07-22 02:32:00,69.3,68.0,29.96,ESE,122,0.0,0.0,96,0.04,,,0.04,meteohub,2013-07-22 06:32:00,
2013-07-22 02:37:00,69.1,67.8,29.96,ESE,122,0.0,0.0,96,0.04,,,0.04,meteohub,2013-07-22 06:37:00,
2013-07-22 02:42:00,69.3,68.0,29.96,ESE,122,0.0,0.0,96,0.04,,,0.04,meteohub,2013-07-22 06:42:00,
2013-07-22 02:47:00,69.3,68.0,29.96,ESE,122,0.0,0.0,96,0.04,,,0.04,meteohub,2013-07-22 06:47:00,
2013-07-22 02:52:00,69.1,67.8,29.96,ESE,122,0.0,0.0,96,0.00,,,0.04,meteohub,2013-07-22 06:52:00,
2013-07-22 02:57:00,69.3,68.0,29.96,ESE,122,0.0,0.0,96,0.00,,,0.04,meteohub,2013-07-22 06:57:00,
2013-07-22 03:02:00,69.1,67.8,29.96,ESE,122,0.0,0.0,96,0.00,,,0.04,meteohub,2013-07-22 07:02:00,
2013-07-22 03:07:00,69.1,67.8,29.96,SSE,168,0.0,0.0,96,0.00,,,0.04,meteohub,2013-07-22 07:07:00,
2013-07-22 03:12:00,69.1,67.8,29.96,SE,145,0.0,0.0,96,0.00,,,0.04,meteohub,2013-07-22 07:12:00,
2013-07-22 03:17:00,69.1,67.8,29.96,SE,145,0.0,0.0,96,0.00,,,0.04,meteohub,2013-07-22 07:17:00,
2013-07-22 03:22:00,68.9,68.0,29.96,NNW,348,0.0,0.0,97,0.00,,,0.04,meteohub,2013-07-22 07:22:00,
2013-07-22 03:27:00,68.9,68.0,29.96,NNW,348,0.0,0.0,97,0.00,,,0.04,meteohub,2013-07-22 07:27:00,
2013-07-22 03:32:00,68.9,68.0,29.96,North,10,0.0,0.0,97,0.00,,,0.04,meteohub,2013-07-22 07:32:00,
2013-07-22 03:37:00,68.9,68.0,29.96,North,10,0.0,0.0,97,0.00,,,0.04,meteohub,2013-07-22 07:37:00,
2013-07-22 03:42:00,68.9,68.0,29.93,North,10,0.0,0.0,97,0.00,,,0.04,meteohub,2013-07-22 07:42:00,
2013-07-22 03:47:00,68.9,68.0,29.93,North,10,0.0,0.0,97,0.00,,,0.04,meteohub,2013-07-22 07:47:00,
2013-07-22 03:52:00,68.9,68.0,29.93,North,10,0.0,0.0,97,0.00,,,0.04,meteohub,2013-07-22 07:52:00,
2013-07-22 03:57:00,68.9,68.0,29.93,North,10,0.0,0.0,97,0.00,,,0.04,meteohub,2013-07-22 07:57:00,
2013-07-22 04:02:00,68.9,68.0,29.93,North,10,0.0,0.0,97,0.00,,,0.04,meteohub,2013-07-22 08:02:00,
2013-07-22 04:07:00,68.9,68.0,29.93,East,100,0.0,0.0,97,0.00,,,0.04,meteohub,2013-07-22 08:07:00,
2013-07-22 04:12:00,68.9,68.0,29.93,East,100,0.0,0.0,97,0.00,,,0.04,meteohub,2013-07-22 08:12:00,
2013-07-22 04:17:00,68.9,68.0,29.93,ESE,122,0.0,0.0,97,0.00,,,0.04,meteohub,2013-07-22 08:17:00,
2013-07-22 04:22:00,68.9,68.0,29.93,ESE,122,0.0,0.0,97,0.00,,,0.04,meteohub,2013-07-22 08:22:00,
2013-07-22 04:27:00,68.9,68.0,29.93,ESE,122,0.0,0.0,97,0.00,,,0.04,meteohub,2013-07-22 08:27:00,
2013-07-22 04:32:00,68.7,67.8,29.93,NNW,348,0.0,0.0,97,0.00,,,0.04,meteohub,2013-07-22 08:32:00,
2013-07-22 04:37:00,68.7,67.8,29.93,West,280,0.0,3.0,97,0.00,,,0.04,meteohub,2013-07-22 08:37:00,
2013-07-22 04:42:00,68.7,67.8,29.93,West,280,0.0,3.0,97,0.00,,,0.04,meteohub,2013-07-22 08:42:00,
2013-07-22 04:47:00,68.7,67.8,29.93,South,190,0.0,3.0,97,0.00,,,0.04,meteohub,2013-07-22 08:47:00,
2013-07-22 04:52:00,68.7,67.8,29.93,South,190,0.0,0.0,97,0.00,,,0.04,meteohub,2013-07-22 08:52:00,
2013-07-22 04:57:00,68.5,67.6,29.93,South,190,0.0,0.0,97,0.00,,,0.04,meteohub,2013-07-22 08:57:00,
2013-07-22 05:02:00,68.5,67.6,29.93,South,190,0.0,0.0,97,0.00,,,0.04,meteohub,2013-07-22 09:02:00,
2013-07-22 05:07:00,68.5,67.6,29.93,NNW,348,0.0,0.0,97,0.00,,,0.04,meteohub,2013-07-22 09:07:00,
2013-07-22 05:12:00,68.5,68.0,29.90,NW,325,0.0,4.0,98,0.00,,,0.04,meteohub,2013-07-22 09:12:00,
2013-07-22 05:17:00,68.5,68.0,29.90,NW,325,0.0,4.0,98,0.00,,,0.04,meteohub,2013-07-22 09:17:00,
2013-07-22 05:22:00,68.5,68.0,29.90,WNW,302,0.0,4.0,98,0.00,,,0.04,meteohub,2013-07-22 09:22:00,
2013-07-22 05:27:00,68.5,68.0,29.90,West,280,0.0,0.0,98,0.00,,,0.04,meteohub,2013-07-22 09:27:00,
2013-07-22 05:32:00,68.4,67.8,29.90,NNW,348,0.0,3.0,98,0.00,,,0.04,meteohub,2013-07-22 09:32:00,
2013-07-22 05:37:00,68.5,68.0,29.90,NNW,348,0.0,4.0,98,0.00,,,0.04,meteohub,2013-07-22 09:37:00,
2013-07-22 05:42:00,68.4,67.8,29.90,NNW,348,0.0,4.0,98,0.00,,,0.04,meteohub,2013-07-22 09:42:00,
2013-07-22 05:47:00,68.4,67.8,29.90,NNW,348,0.0,3.0,98,0.00,,,0.04,meteohub,2013-07-22 09:47:00,
2013-07-22 05:57:00,68.2,67.6,29.90,NNW,348,0.0,0.0,98,0.00,,,0.04,meteohub,2013-07-22 09:57:00,
2013-07-22 06:02:00,68.4,67.8,29.90,NNW,348,0.0,0.0,98,0.00,,,0.04,meteohub,2013-07-22 10:02:00,
2013-07-22 06:07:00,68.4,67.8,29.90,NNW,348,0.0,0.0,98,0.00,,,0.04,meteohub,2013-07-22 10:07:00,
2013-07-22 06:12:00,68.2,67.6,29.93,NNW,348,0.0,0.0,98,0.00,,,0.04,meteohub,2013-07-22 10:12:00,
2013-07-22 06:17:00,68.2,67.6,29.93,NNW,348,0.0,3.0,98,0.00,,,0.04,meteohub,2013-07-22 10:17:00,
2013-07-22 06:22:00,68.2,67.6,29.93,NNW,348,0.0,3.0,98,0.00,,,0.04,meteohub,2013-07-22 10:22:00,
2013-07-22 06:27:00,68.0,67.5,29.93,WSW,258,0.0,3.0,98,0.00,,,0.04,meteohub,2013-07-22 10:27:00,
2013-07-22 06:32:00,68.0,67.5,29.93,SW,235,0.0,0.0,98,0.00,,,0.04,meteohub,2013-07-22 10:32:00,
2013-07-22 06:37:00,68.0,67.5,29.93,NW,325,0.0,3.0,98,0.00,,,0.04,meteohub,2013-07-22 10:37:00,
2013-07-22 06:42:00,68.0,67.5,29.93,NW,325,0.0,3.0,98,0.00,,,0.04,meteohub,2013-07-22 10:42:00,
2013-07-22 06:47:00,68.0,67.5,29.93,NW,325,0.0,0.0,98,0.00,,,0.04,meteohub,2013-07-22 10:47:00,
2013-07-22 06:52:00,68.0,67.5,29.93,NW,325,0.0,0.0,98,0.00,,,0.04,meteohub,2013-07-22 10:52:00,
2013-07-22 06:57:00,68.0,67.5,29.96,SSW,212,0.0,0.0,98,0.00,,,0.04,meteohub,2013-07-22 10:57:00,
2013-07-22 07:02:00,67.8,67.3,29.96,NNE,32,0.0,0.0,98,0.00,,,0.04,meteohub,2013-07-22 11:02:00,
2013-07-22 07:07:00,68.0,67.5,29.96,NW,325,0.0,0.0,98,0.00,,,0.04,meteohub,2013-07-22 11:07:00,
2013-07-22 07:12:00,68.0,67.5,29.96,NNW,348,0.0,2.0,98,0.00,,,0.04,meteohub,2013-07-22 11:12:00,
2013-07-22 07:17:00,68.0,67.5,29.96,South,190,0.0,2.0,98,0.00,,,0.04,meteohub,2013-07-22 11:17:00,
2013-07-22 07:22:00,68.0,67.5,29.96,NNE,32,0.0,2.0,98,0.00,,,0.04,meteohub,2013-07-22 11:22:00,
2013-07-22 07:27:00,68.2,67.6,29.96,NNE,32,0.0,0.0,98,0.00,,,0.04,meteohub,2013-07-22 11:27:00,
2013-07-22 07:32:00,68.2,67.6,29.96,NNE,32,0.0,0.0,98,0.00,,,0.04,meteohub,2013-07-22 11:32:00,
2013-07-22 07:37:00,68.4,67.8,29.96,NNE,32,0.0,0.0,98,0.00,,,0.04,meteohub,2013-07-22 11:37:00,
2013-07-22 07:42:00,68.5,68.0,29.96,NNW,348,0.0,0.0,98,0.00,,,0.04,meteohub,2013-07-22 11:42:00,
2013-07-22 07:47:00,68.5,68.0,29.96,NNW,348,3.0,0.0,98,0.00,,,0.04,meteohub,2013-07-22 11:47:00,
2013-07-22 07:52:00,68.5,68.0,29.96,NW,325,0.0,4.0,98,0.00,,,0.04,meteohub,2013-07-22 11:52:00,
2013-07-22 07:57:00,68.5,68.0,29.96,NW,325,0.0,4.0,98,0.00,,,0.04,meteohub,2013-07-22 11:57:00,
2013-07-22 08:02:00,68.5,68.0,29.96,NW,325,0.0,4.0,98,0.00,,,0.04,meteohub,2013-07-22 12:02:00,
2013-07-22 08:07:00,68.9,68.4,29.96,South,190,0.0,0.0,98,0.00,,,0.04,meteohub,2013-07-22 12:07:00,
2013-07-22 08:12:00,69.1,68.5,29.96,WNW,302,0.0,0.0,98,0.00,,,0.04,meteohub,2013-07-22 12:12:00,
2013-07-22 08:17:00,69.1,68.5,29.96,NNW,348,0.0,0.0,98,0.00,,,0.04,meteohub,2013-07-22 12:17:00,
2013-07-22 08:22:00,69.1,68.5,29.96,North,10,0.0,0.0,98,0.00,,,0.04,meteohub,2013-07-22 12:22:00,
2013-07-22 08:27:00,69.3,68.7,29.96,NW,325,0.0,0.0,98,0.00,,,0.04,meteohub,2013-07-22 12:27:00,
2013-07-22 08:32:00,69.3,68.7,29.96,North,10,0.0,0.0,98,0.00,,,0.04,meteohub,2013-07-22 12:32:00,
2013-07-22 08:37:00,69.4,68.9,29.96,West,280,0.0,0.0,98,0.00,,,0.04,meteohub,2013-07-22 12:37:00,
2013-07-22 08:42:00,69.6,69.1,29.96,West,280,0.0,0.0,98,0.00,,,0.04,meteohub,2013-07-22 12:42:00,
2013-07-22 08:47:00,69.8,69.3,29.96,WSW,258,0.0,0.0,98,0.00,,,0.04,meteohub,2013-07-22 12:47:00,
2013-07-22 08:52:00,70.0,69.4,29.96,SSE,168,0.0,0.0,98,0.00,,,0.04,meteohub,2013-07-22 12:52:00,
2013-07-22 08:57:00,70.3,69.8,29.96,SSE,168,0.0,0.0,98,0.00,,,0.04,meteohub,2013-07-22 12:57:00,
2013-07-22 09:02:00,70.5,69.6,29.96,WNW,302,0.0,0.0,97,0.00,,,0.04,meteohub,2013-07-22 13:02:00,
2013-07-22 09:07:00,70.7,69.8,29.96,NW,325,4.0,0.0,97,0.00,,,0.04,meteohub,2013-07-22 13:07:00,
2013-07-22 09:12:00,70.5,69.3,29.96,NW,325,6.0,6.0,96,0.00,,,0.04,meteohub,2013-07-22 13:12:00,
2013-07-22 09:17:00,70.7,69.4,29.96,WNW,302,0.0,7.0,96,0.00,,,0.04,meteohub,2013-07-22 13:17:00,
2013-07-22 09:22:00,70.7,69.4,29.96,WNW,302,0.0,7.0,96,0.00,,,0.04,meteohub,2013-07-22 13:22:00,
2013-07-22 09:27:00,71.1,69.8,29.96,NE,55,0.0,7.0,96,0.00,,,0.04,meteohub,2013-07-22 13:27:00,
2013-07-22 09:32:00,71.1,69.8,29.96,WNW,302,0.0,2.0,96,0.00,,,0.04,meteohub,2013-07-22 13:32:00,
2013-07-22 09:37:00,71.1,69.8,29.96,WNW,302,2.0,4.0,96,0.00,,,0.04,meteohub,2013-07-22 13:37:00,
2013-07-22 09:42:00,71.2,69.8,29.99,WNW,302,0.0,4.0,95,0.00,,,0.04,meteohub,2013-07-22 13:42:00,
2013-07-22 09:47:00,71.2,69.8,29.99,ESE,122,0.0,5.0,95,0.00,,,0.04,meteohub,2013-07-22 13:47:00,
2013-07-22 09:52:00,71.4,70.0,29.99,East,100,0.0,6.0,95,0.00,,,0.04,meteohub,2013-07-22 13:52:00,
2013-07-22 09:57:00,71.6,70.2,29.99,WNW,302,0.0,6.0,95,0.00,,,0.04,meteohub,2013-07-22 13:57:00,
2013-07-22 10:02:00,71.8,70.3,29.99,WNW,302,0.0,4.0,95,0.00,,,0.04,meteohub,2013-07-22 14:02:00,
2013-07-22 10:07:00,72.0,70.5,29.99,East,100,0.0,4.0,95,0.00,,,0.04,meteohub,2013-07-22 14:07:00,
2013-07-22 10:12:00,72.1,70.7,29.96,North,10,2.0,3.0,95,0.00,,,0.04,meteohub,2013-07-22 14:12:00,
2013-07-22 10:17:00,72.3,70.5,29.96,West,280,3.0,6.0,94,0.00,,,0.04,meteohub,2013-07-22 14:17:00,
2013-07-22 10:22:00,72.7,70.5,29.96,North,10,5.0,7.0,93,0.00,,,0.04,meteohub,2013-07-22 14:22:00,
2013-07-22 10:27:00,72.7,70.2,29.96,NNW,348,5.0,11.0,92,0.00,,,0.04,meteohub,2013-07-22 14:27:00,
2013-07-22 10:32:00,72.9,70.2,29.96,NW,325,2.0,11.0,91,0.00,,,0.04,meteohub,2013-07-22 14:32:00,
2013-07-22 10:37:00,73.0,70.3,29.96,WSW,258,4.0,11.0,91,0.00,,,0.04,meteohub,2013-07-22 14:37:00,
2013-07-22 10:47:00,73.4,70.3,29.96,North,10,0.0,8.0,90,0.00,,,0.04,meteohub,2013-07-22 14:47:00,
2013-07-22 10:52:00,73.6,70.2,29.96,East,100,0.0,8.0,89,0.00,,,0.04,meteohub,2013-07-22 14:52:00,
2013-07-22 10:57:00,73.6,69.8,29.99,WNW,302,0.0,8.0,88,0.00,,,0.04,meteohub,2013-07-22 14:57:00,
2013-07-22 11:02:00,73.6,69.8,29.99,North,10,2.0,9.0,88,0.00,,,0.04,meteohub,2013-07-22 15:02:00,
2013-07-22 11:07:00,74.1,69.6,29.99,NNW,348,7.0,12.0,86,0.00,,,0.04,meteohub,2013-07-22 15:07:00,
2013-07-22 11:12:00,74.3,69.4,29.96,North,10,8.0,12.0,85,0.00,,,0.04,meteohub,2013-07-22 15:12:00,
2013-07-22 11:17:00,74.3,69.1,29.96,WNW,302,7.0,12.0,84,0.00,,,0.04,meteohub,2013-07-22 15:17:00,
2013-07-22 11:22:00,74.7,69.1,29.96,WNW,302,9.0,12.0,83,0.00,,,0.04,meteohub,2013-07-22 15:22:00,
2013-07-22 11:27:00,74.8,68.9,29.96,North,10,9.0,12.0,82,0.00,,,0.04,meteohub,2013-07-22 15:27:00,
2013-07-22 11:32:00,74.8,68.9,29.96,NW,325,4.0,13.0,82,0.00,,,0.04,meteohub,2013-07-22 15:32:00,
2013-07-22 11:37:00,75.4,69.4,29.96,NNW,348,12.0,13.0,82,0.00,,,0.04,meteohub,2013-07-22 15:37:00,
2013-07-22 11:42:00,75.2,68.2,29.96,North,10,5.0,12.0,79,0.00,,,0.04,meteohub,2013-07-22 15:42:00,
2013-07-22 11:47:00,75.2,68.5,29.96,North,10,4.0,13.0,80,0.00,,,0.04,meteohub,2013-07-22 15:47:00,
2013-07-22 11:52:00,75.4,68.4,29.96,NNW,348,8.0,13.0,79,0.00,,,0.04,meteohub,2013-07-22 15:52:00,
2013-07-22 11:57:00,75.7,68.0,29.96,NNW,348,10.0,15.0,77,0.00,,,0.04,meteohub,2013-07-22 15:57:00,
2013-07-22 12:02:00,75.6,67.5,29.96,NNW,348,8.0,15.0,76,0.00,,,0.04,meteohub,2013-07-22 16:02:00,
2013-07-22 12:07:00,76.3,68.5,29.96,West,280,4.0,15.0,77,0.00,,,0.04,meteohub,2013-07-22 16:07:00,
2013-07-22 12:12:00,76.1,68.4,29.93,NNW,348,6.0,12.0,77,0.00,,,0.04,meteohub,2013-07-22 16:12:00,
2013-07-22 12:17:00,76.1,68.0,29.93,East,100,0.0,12.0,76,0.00,,,0.04,meteohub,2013-07-22 16:17:00,
2013-07-22 12:22:00,76.5,69.1,29.93,South,190,6.0,12.0,78,0.00,,,0.04,meteohub,2013-07-22 16:22:00,
2013-07-22 12:27:00,76.8,69.4,29.93,North,10,2.0,11.0,78,0.00,,,0.04,meteohub,2013-07-22 16:27:00,
2013-07-22 12:32:00,77.2,69.1,29.93,SSW,212,5.0,11.0,76,0.00,,,0.04,meteohub,2013-07-22 16:32:00,
2013-07-22 12:47:00,79.2,70.2,29.93,SSW,212,7.0,9.0,74,0.00,,,0.04,meteohub,2013-07-22 16:47:00,
2013-07-22 12:52:00,78.6,68.4,29.93,WSW,258,3.0,12.0,71,0.00,,,0.04,meteohub,2013-07-22 16:52:00,
2013-07-22 12:57:00,78.6,68.9,29.93,NNW,348,4.0,12.0,72,0.00,,,0.04,meteohub,2013-07-22 16:57:00,
2013-07-22 13:02:00,78.1,67.5,29.93,North,10,3.0,16.0,70,0.00,,,0.04,meteohub,2013-07-22 17:02:00,
2013-07-22 13:07:00,78.4,66.6,29.93,North,10,4.0,16.0,67,0.00,,,0.04,meteohub,2013-07-22 17:07:00,
2013-07-22 13:12:00,78.3,66.7,29.93,North,10,8.0,16.0,68,0.00,,,0.04,meteohub,2013-07-22 17:12:00,
2013-07-22 13:17:00,78.1,66.7,29.93,North,10,2.0,13.0,68,0.00,,,0.04,meteohub,2013-07-22 17:17:00,
2013-07-22 13:22:00,78.4,66.9,29.93,NNE,32,6.0,13.0,68,0.00,,,0.04,meteohub,2013-07-22 17:22:00,
2013-07-22 13:27:00,79.0,67.1,29.93,North,10,0.0,12.0,67,0.00,,,0.04,meteohub,2013-07-22 17:27:00,
2013-07-22 13:32:00,79.0,68.0,29.93,NNE,32,3.0,12.0,69,0.00,,,0.04,meteohub,2013-07-22 17:32:00,
2013-07-22 13:37:00,79.5,67.1,29.93,NNW,348,5.0,12.0,66,0.00,,,0.04,meteohub,2013-07-22 17:37:00,
2013-07-22 13:47:00,79.9,66.6,29.90,SW,235,4.0,13.0,64,0.00,,,0.04,meteohub,2013-07-22 17:47:00,
2013-07-22 13:52:00,80.6,67.8,29.90,SSW,212,5.0,13.0,65,0.00,,,0.04,meteohub,2013-07-22 17:52:00,
2013-07-22 13:57:00,80.8,66.9,29.90,WSW,258,4.0,14.0,63,0.00,,,0.04,meteohub,2013-07-22 17:57:00,
2013-07-22 14:02:00,80.8,66.6,29.90,WSW,258,5.0,14.0,62,0.00,,,0.04,meteohub,2013-07-22 18:02:00,
2013-07-22 14:12:00,81.5,67.6,29.90,SW,235,7.0,15.0,63,0.00,,,0.04,meteohub,2013-07-22 18:12:00,
2013-07-22 14:17:00,80.4,65.3,29.90,NNW,348,11.0,15.0,60,0.00,,,0.04,meteohub,2013-07-22 18:17:00,
2013-07-22 14:22:00,80.8,64.6,29.90,NW,325,13.0,16.0,58,0.00,,,0.04,meteohub,2013-07-22 18:22:00,
2013-07-22 14:27:00,81.1,66.4,29.87,NE,55,6.0,16.0,61,0.00,,,0.04,meteohub,2013-07-22 18:27:00,
2013-07-22 14:32:00,80.8,65.7,29.87,WNW,302,8.0,16.0,60,0.00,,,0.04,meteohub,2013-07-22 18:32:00,
2013-07-22 14:37:00,80.1,64.4,29.87,WNW,302,14.0,16.0,59,0.00,,,0.04,meteohub,2013-07-22 18:37:00,
2013-07-22 14:47:00,79.5,64.9,29.90,NW,325,9.0,16.0,61,0.00,,,0.04,meteohub,2013-07-22 18:47:00,
2013-07-22 14:57:00,79.7,66.0,29.87,SW,235,5.0,16.0,63,0.00,,,0.04,meteohub,2013-07-22 18:57:00,
2013-07-22 15:02:00,79.7,66.0,29.87,North,10,7.0,11.0,63,0.00,,,0.04,meteohub,2013-07-22 19:02:00,
2013-07-22 15:07:00,79.5,65.3,29.87,WNW,302,12.0,12.0,62,0.00,,,0.04,meteohub,2013-07-22 19:07:00,
2013-07-22 15:12:00,79.3,64.8,29.87,SSW,212,4.0,12.0,61,0.00,,,0.04,meteohub,2013-07-22 19:12:00,
2013-07-22 15:17:00,79.3,64.8,29.87,SE,145,8.0,12.0,61,0.00,,,0.04,meteohub,2013-07-22 19:17:00,
2013-07-22 15:22:00,79.2,64.9,29.87,SSE,168,2.0,12.0,62,0.00,,,0.04,meteohub,2013-07-22 19:22:00,
2013-07-22 15:32:00,78.8,65.7,29.87,SSW,212,5.0,8.0,64,0.00,,,0.04,meteohub,2013-07-22 19:32:00,
2013-07-22 15:37:00,79.0,66.2,29.87,South,190,7.0,7.0,65,0.00,,,0.04,meteohub,2013-07-22 19:37:00,
2013-07-22 15:42:00,78.6,65.5,29.87,SSE,168,6.0,11.0,64,0.00,,,0.04,meteohub,2013-07-22 19:42:00,
2013-07-22 15:52:00,78.4,66.6,29.87,WSW,258,9.0,9.0,67,0.00,,,0.04,meteohub,2013-07-22 19:52:00,
2013-07-22 15:57:00,78.8,66.9,29.84,SSE,168,5.0,9.0,67,0.00,,,0.04,meteohub,2013-07-22 19:57:00,
2013-07-22 16:02:00,78.4,66.2,29.84,WNW,302,4.0,9.0,66,0.00,,,0.04,meteohub,2013-07-22 20:02:00,
2013-07-22 16:07:00,78.3,65.5,29.84,North,10,3.0,9.0,65,0.00,,,0.04,meteohub,2013-07-22 20:07:00,
2013-07-22 16:12:00,78.1,65.3,29.87,SSE,168,0.0,7.0,65,0.00,,,0.04,meteohub,2013-07-22 20:12:00,
2013-07-22 16:17:00,78.1,66.2,29.87,North,10,0.0,7.0,67,0.00,,,0.04,meteohub,2013-07-22 20:17:00,
2013-07-22 16:22:00,78.3,66.7,29.87,SSW,212,5.0,7.0,68,0.00,,,0.04,meteohub,2013-07-22 20:22:00,
2013-07-22 16:27:00,78.4,66.2,29.87,WNW,302,8.0,8.0,66,0.00,,,0.04,meteohub,2013-07-22 20:27:00,
2013-07-22 16:32:00,78.8,66.6,29.87,NW,325,3.0,8.0,66,0.00,,,0.04,meteohub,2013-07-22 20:32:00,
2013-07-22 16:37:00,78.8,66.6,29.87,NNW,348,6.0,8.0,66,0.00,,,0.04,meteohub,2013-07-22 20:37:00,
2013-07-22 16:42:00,79.0,66.2,29.87,NNE,32,4.0,8.0,65,0.00,,,0.04,meteohub,2013-07-22 20:42:00,
2013-07-22 16:47:00,79.3,67.5,29.87,NW,325,4.0,7.0,67,0.00,,,0.04,meteohub,2013-07-22 20:47:00,
2013-07-22 16:52:00,79.7,66.0,29.87,North,10,4.0,7.0,63,0.00,,,0.04,meteohub,2013-07-22 20:52:00,
2013-07-22 16:57:00,80.4,66.7,29.87,WNW,302,4.0,13.0,63,0.00,,,0.04,meteohub,2013-07-22 20:57:00,
2013-07-22 17:02:00,80.6,65.5,29.87,SW,235,13.0,17.0,60,0.00,,,0.04,meteohub,2013-07-22 21:02:00,
2013-07-22 17:07:00,81.0,65.8,29.87,NNW,348,16.0,17.0,60,0.00,,,0.04,meteohub,2013-07-22 21:07:00,
2013-07-22 17:12:00,81.3,66.0,29.87,North,10,7.0,17.0,60,0.00,,,0.04,meteohub,2013-07-22 21:12:00,
2013-07-22 17:17:00,80.6,64.4,29.87,North,10,8.0,16.0,58,0.00,,,0.04,meteohub,2013-07-22 21:17:00,
2013-07-22 17:22:00,80.8,64.6,29.87,North,10,8.0,16.0,58,0.00,,,0.04,meteohub,2013-07-22 21:22:00,
2013-07-22 17:27:00,80.2,63.7,29.84,North,10,8.0,13.0,57,0.00,,,0.04,meteohub,2013-07-22 21:27:00,
2013-07-22 17:32:00,80.2,64.6,29.84,NNW,348,9.0,13.0,59,0.00,,,0.04,meteohub,2013-07-22 21:32:00,
2013-07-22 17:37:00,80.2,65.1,29.84,WSW,258,0.0,13.0,60,0.00,,,0.04,meteohub,2013-07-22 21:37:00,
2013-07-22 17:42:00,80.2,65.5,29.84,North,10,5.0,12.0,61,0.00,,,0.04,meteohub,2013-07-22 21:42:00,
2013-07-22 17:47:00,80.6,66.4,29.84,NNW,348,5.0,10.0,62,0.00,,,0.04,meteohub,2013-07-22 21:47:00,
2013-07-22 17:52:00,80.6,66.4,29.84,WNW,302,4.0,8.0,62,0.00,,,0.04,meteohub,2013-07-22 21:52:00,
2013-07-22 17:57:00,80.2,66.9,29.84,North,10,2.0,8.0,64,0.00,,,0.04,meteohub,2013-07-22 21:57:00,
2013-07-22 18:02:00,80.1,66.7,29.84,SSE,168,0.0,6.0,64,0.00,,,0.04,meteohub,2013-07-22 22:02:00,
2013-07-22 18:07:00,79.7,67.3,29.84,East,100,2.0,6.0,66,0.00,,,0.04,meteohub,2013-07-22 22:07:00,
2013-07-22 18:12:00,79.9,68.4,29.84,SE,145,0.0,4.0,68,0.00,,,0.04,meteohub,2013-07-22 22:12:00,
2013-07-22 18:17:00,80.1,68.5,29.84,NE,55,0.0,3.0,68,0.00,,,0.04,meteohub,2013-07-22 22:17:00,
2013-07-22 18:22:00,79.9,68.4,29.84,WSW,258,0.0,3.0,68,0.00,,,0.04,meteohub,2013-07-22 22:22:00,
2013-07-22 18:27:00,79.7,67.8,29.84,SW,235,3.0,0.0,67,0.00,,,0.04,meteohub,2013-07-22 22:27:00,
2013-07-22 18:32:00,79.9,68.0,29.84,North,10,0.0,4.0,67,0.00,,,0.04,meteohub,2013-07-22 22:32:00,
2013-07-22 18:37:00,79.9,68.4,29.84,SE,145,0.0,4.0,68,0.00,,,0.04,meteohub,2013-07-22 22:37:00,
2013-07-22 18:42:00,79.7,67.8,29.81,North,10,0.0,4.0,67,0.00,,,0.04,meteohub,2013-07-22 22:42:00,
2013-07-22 18:47:00,79.3,67.5,29.81,South,190,4.0,4.0,67,0.00,,,0.04,meteohub,2013-07-22 22:47:00,
2013-07-22 18:52:00,79.0,67.5,29.81,SE,145,4.0,4.0,68,0.00,,,0.04,meteohub,2013-07-22 22:52:00,
2013-07-22 18:57:00,78.4,67.5,29.84,SSE,168,3.0,4.0,69,0.00,,,0.04,meteohub,2013-07-22 22:57:00,
2013-07-22 19:02:00,78.3,67.3,29.84,South,190,0.0,4.0,69,0.00,,,0.04,meteohub,2013-07-22 23:02:00,
2013-07-22 19:07:00,77.9,67.3,29.84,SE,145,2.0,5.0,70,0.00,,,0.04,meteohub,2013-07-22 23:07:00,
2013-07-22 19:12:00,77.5,66.9,29.84,SSE,168,4.0,5.0,70,0.00,,,0.04,meteohub,2013-07-22 23:12:00,
2013-07-22 19:22:00,76.8,67.1,29.84,SSE,168,0.0,5.0,72,0.00,,,0.04,meteohub,2013-07-22 23:22:00,
2013-07-22 19:27:00,76.6,67.3,29.84,SSE,168,2.0,5.0,73,0.00,,,0.04,meteohub,2013-07-22 23:27:00,
2013-07-22 19:32:00,75.9,66.6,29.84,South,190,6.0,6.0,73,0.00,,,0.04,meteohub,2013-07-22 23:32:00,
2013-07-22 19:37:00,75.6,66.4,29.84,SSW,212,3.0,6.0,73,0.00,,,0.04,meteohub,2013-07-22 23:37:00,
2013-07-22 19:42:00,75.0,66.2,29.84,SSE,168,0.0,7.0,74,0.00,,,0.04,meteohub,2013-07-22 23:42:00,
2013-07-22 19:47:00,74.7,65.1,29.84,SW,235,5.0,11.0,72,0.00,,,0.04,meteohub,2013-07-22 23:47:00,
2013-07-22 19:52:00,74.1,64.0,29.84,East,100,4.0,11.0,71,0.00,,,0.04,meteohub,2013-07-22 23:52:00,
2013-07-22 19:57:00,73.8,64.2,29.84,East,100,0.0,14.0,72,0.00,,,0.04,meteohub,2013-07-22 23:57:00,
2013-07-22 20:02:00,73.6,64.8,29.84,ENE,78,2.0,14.0,74,0.04,,,0.08,meteohub,2013-07-23 00:02:00,
2013-07-22 20:07:00,72.7,64.8,29.84,NE,55,3.0,14.0,76,0.04,,,0.08,meteohub,2013-07-23 00:07:00,
2013-07-22 20:12:00,72.7,65.1,29.84,WSW,258,2.0,8.0,77,0.08,,,0.12,meteohub,2013-07-23 00:12:00,
2013-07-22 20:17:00,72.5,65.3,29.84,ESE,122,0.0,5.0,78,0.08,,,0.12,meteohub,2013-07-23 00:17:00,
2013-07-22 20:22:00,72.5,65.7,29.84,SSE,168,2.0,4.0,79,0.08,,,0.12,meteohub,2013-07-23 00:22:00,
2013-07-22 20:27:00,72.5,66.0,29.84,SE,145,0.0,3.0,80,0.08,,,0.12,meteohub,2013-07-23 00:27:00,
2013-07-22 20:32:00,72.3,65.8,29.84,South,190,0.0,3.0,80,0.08,,,0.12,meteohub,2013-07-23 00:32:00,
2013-07-22 20:37:00,72.1,65.7,29.84,SW,235,0.0,3.0,80,0.08,,,0.12,meteohub,2013-07-23 00:37:00,
2013-07-22 20:42:00,72.0,65.5,29.84,ESE,122,0.0,2.0,80,0.08,,,0.12,meteohub,2013-07-23 00:42:00,
2013-07-22 20:47:00,72.0,65.5,29.84,SSW,212,0.0,0.0,80,0.08,,,0.12,meteohub,2013-07-23 00:47:00,
2013-07-22 20:57:00,71.4,65.3,29.84,North,10,5.0,0.0,81,0.24,,,0.28,meteohub,2013-07-23 00:57:00,
2013-07-22 21:02:00,71.1,65.3,29.84,WNW,302,0.0,7.0,82,0.20,,,0.28,meteohub,2013-07-23 01:02:00,
2013-07-22 21:07:00,71.1,65.7,29.84,ESE,122,0.0,7.0,83,0.21,,,0.33,meteohub,2013-07-23 01:07:00,
2013-07-22 21:12:00,71.1,66.0,29.84,SSE,168,0.0,7.0,84,0.21,,,0.33,meteohub,2013-07-23 01:12:00,
2013-07-22 21:22:00,70.9,65.8,29.84,North,10,0.0,4.0,84,0.21,,,0.33,meteohub,2013-07-23 01:22:00,
2013-07-22 21:27:00,70.7,66.0,29.84,South,190,0.0,4.0,85,0.21,,,0.33,meteohub,2013-07-23 01:27:00,
2013-07-22 21:32:00,70.7,66.4,29.84,South,190,0.0,4.0,86,0.21,,,0.33,meteohub,2013-07-23 01:32:00,
2013-07-22 21:37:00,70.7,66.4,29.84,SSW,212,0.0,0.0,86,0.21,,,0.33,meteohub,2013-07-23 01:37:00,
2013-07-22 21:42:00,70.7,66.4,29.84,SSE,168,0.0,0.0,86,0.21,,,0.33,meteohub,2013-07-23 01:42:00,
2013-07-22 21:47:00,70.7,66.6,29.84,SE,145,0.0,0.0,87,0.17,,,0.33,meteohub,2013-07-23 01:47:00,
2013-07-22 21:52:00,70.5,66.4,29.84,ENE,78,0.0,0.0,87,0.13,,,0.33,meteohub,2013-07-23 01:52:00,
2013-07-22 21:57:00,70.5,66.4,29.84,ENE,78,0.0,2.0,87,0.05,,,0.33,meteohub,2013-07-23 01:57:00,
2013-07-22 22:02:00,70.5,66.4,29.84,ENE,78,0.0,2.0,87,0.05,,,0.33,meteohub,2013-07-23 02:02:00,
2013-07-22 22:07:00,70.3,66.2,29.84,SSW,212,0.0,0.0,87,0.00,,,0.33,meteohub,2013-07-23 02:07:00,
2013-07-22 22:12:00,70.3,66.6,29.84,ESE,122,0.0,0.0,88,0.00,,,0.33,meteohub,2013-07-23 02:12:00,
2013-07-22 22:17:00,70.3,66.6,29.84,ESE,122,0.0,0.0,88,0.00,,,0.33,meteohub,2013-07-23 02:17:00,
2013-07-22 22:22:00,70.2,66.4,29.84,ESE,122,0.0,0.0,88,0.00,,,0.33,meteohub,2013-07-23 02:22:00,
2013-07-22 22:27:00,70.3,66.6,29.84,ESE,122,0.0,0.0,88,0.00,,,0.33,meteohub,2013-07-23 02:27:00,
2013-07-22 22:32:00,70.2,66.4,29.84,ESE,122,0.0,0.0,88,0.00,,,0.33,meteohub,2013-07-23 02:32:00,
2013-07-22 22:37:00,70.0,66.2,29.84,ESE,122,0.0,0.0,88,0.00,,,0.33,meteohub,2013-07-23 02:37:00,
2013-07-22 22:42:00,70.0,66.2,29.87,ESE,122,0.0,0.0,88,0.00,,,0.33,meteohub,2013-07-23 02:42:00,
2013-07-22 22:47:00,69.8,66.0,29.87,ESE,122,0.0,0.0,88,0.00,,,0.33,meteohub,2013-07-23 02:47:00,
2013-07-22 22:52:00,69.6,66.2,29.87,ESE,122,0.0,0.0,89,0.00,,,0.33,meteohub,2013-07-23 02:52:00,
2013-07-22 22:57:00,69.6,66.2,29.84,ESE,122,0.0,0.0,89,0.00,,,0.33,meteohub,2013-07-23 02:57:00,
2013-07-22 23:02:00,69.6,66.2,29.84,ENE,78,0.0,0.0,89,0.00,,,0.33,meteohub,2013-07-23 03:02:00,
2013-07-22 23:07:00,69.4,66.0,29.84,ENE,78,0.0,0.0,89,0.00,,,0.33,meteohub,2013-07-23 03:07:00,
2013-07-22 23:12:00,69.4,66.0,29.84,ENE,78,0.0,0.0,89,0.00,,,0.33,meteohub,2013-07-23 03:12:00,
2013-07-22 23:17:00,69.3,66.2,29.84,SSW,212,0.0,0.0,90,0.00,,,0.33,meteohub,2013-07-23 03:17:00,
2013-07-22 23:22:00,69.3,66.2,29.84,South,190,0.0,0.0,90,0.00,,,0.33,meteohub,2013-07-23 03:22:00,
2013-07-22 23:27:00,69.1,66.0,29.84,South,190,0.0,0.0,90,0.00,,,0.33,meteohub,2013-07-23 03:27:00,
2013-07-22 23:32:00,69.1,66.0,29.84,SSE,168,0.0,0.0,90,0.00,,,0.33,meteohub,2013-07-23 03:32:00,
2013-07-22 23:37:00,68.9,65.8,29.84,ENE,78,0.0,0.0,90,0.00,,,0.33,meteohub,2013-07-23 03:37:00,
2013-07-22 23:42:00,68.9,66.2,29.84,ENE,78,0.0,0.0,91,0.00,,,0.33,meteohub,2013-07-23 03:42:00,
2013-07-22 23:47:00,68.9,66.2,29.84,ENE,78,0.0,0.0,91,0.00,,,0.33,meteohub,2013-07-23 03:47:00,
2013-07-22 23:52:00,69.1,66.4,29.84,South,190,0.0,0.0,91,0.00,,,0.33,meteohub,2013-07-23 03:52:00,
2013-07-22 23:57:00,68.9,66.2,29.84,NNW,348,0.0,0.0,91,0.00,,,0.33,meteohub,2013-07-23 03:57:00,